»·PEaware :: N333ZS KCRQ-KSBA

N333ZS :: KCRQ-KSBA

FLIGHT INFORMATION

Flight Status: Arrived
Operator: Privately registered:
United States
More flights under this callsign
Pilot: Judd H. (29974)
Aircraft: CESSNA 182 SKYLANE
(C182)
More flights by this aircraft type
Origin: KCRQ McClellan-Palomar
United States
Destination: KSBA Santa Barbara Mun
United States
More flights between these airports :: More routes between these airports
Route:
File this flight plan on PilotEdge
Remarks: TEC route SANP35
Altitude:
(Current/Filed)
6,000ft
Speed:
(Current/Filed)
120kts
Departed: 22-Sep-20 12:07 AM
Arrived: 22-Sep-20 01:17 AM
Distance/Time
Traveled:
149nm/1:10
Distance/Time
To Go:
Arrived

Flight Plot

Page will automatically refresh every two minutes.


Map Options




Map Legend


Flown Route
Filed Route
Departure Airport
Arrival Airport
Navaid (VOR, NDB)
Fix

Horizontal Profiles

Position Reports

Time Latitude Longitude Heading Altitude Ground
Speed
21-Sep-20 23:56 33.127605 -117.275361 264 303ft 0kts
21-Sep-20 23:57 33.127605 -117.275368 264 303ft 0kts
21-Sep-20 23:58 33.127605 -117.275369 264 303ft 0kts
21-Sep-20 23:59 33.127604 -117.275371 264 303ft 0kts
22-Sep-20 00:00 33.127604 -117.275372 264 303ft 0kts
22-Sep-20 00:01 33.127604 -117.275373 264 303ft 0kts
22-Sep-20 00:02 33.127604 -117.275375 264 303ft 0kts
22-Sep-20 00:03 33.127604 -117.275376 264 303ft 0kts
22-Sep-20 00:04 33.127604 -117.275378 264 303ft 0kts
22-Sep-20 00:06 33.128750 -117.272409 346 303ft 0kts
22-Sep-20 00:07 33.128878 -117.276229 257 303ft 69kts
22-Sep-20 00:08 33.123704 -117.312873 259 898ft 125kts
22-Sep-20 00:09 33.132038 -117.351626 310 1577ft 129kts
22-Sep-20 00:10 33.163294 -117.362254 6 2310ft 122kts
22-Sep-20 00:11 33.197415 -117.366324 326 2816ft 132kts
22-Sep-20 00:12 33.223824 -117.394414 308 3461ft 130kts
22-Sep-20 00:13 33.249820 -117.424770 312 4044ft 131kts
22-Sep-20 00:14 33.276268 -117.454859 322 4587ft 134kts
22-Sep-20 00:15 33.302823 -117.486305 315 5089ft 136kts
22-Sep-20 00:16 33.330676 -117.516469 316 5584ft 134kts
22-Sep-20 00:17 33.357321 -117.547423 308 6084ft 131kts
22-Sep-20 00:18 33.380901 -117.585175 310 5945ft 145kts
22-Sep-20 00:19 33.407842 -117.619210 311 5836ft 142kts
22-Sep-20 00:20 33.436095 -117.650823 310 5878ft 134kts
22-Sep-20 00:21 33.461702 -117.683206 314 6078ft 139kts
22-Sep-20 00:22 33.485390 -117.710143 313 6127ft 145kts
22-Sep-20 00:23 33.490449 -117.715928 317 6144ft 144kts
22-Sep-20 00:24 33.520879 -117.747149 315 6136ft 149kts
22-Sep-20 00:24 33.546086 -117.775300 313 6049ft 149kts
22-Sep-20 00:26 33.577448 -117.817963 312 5971ft 146kts
22-Sep-20 00:26 33.601740 -117.845745 314 5962ft 143kts
22-Sep-20 00:27 33.630313 -117.878871 316 5898ft 146kts
22-Sep-20 00:29 33.663209 -117.914913 314 5954ft 142kts
22-Sep-20 00:29 33.687627 -117.941088 314 5974ft 142kts
22-Sep-20 00:31 33.720528 -117.980018 312 5982ft 142kts
22-Sep-20 00:31 33.744134 -118.007645 309 5975ft 142kts
22-Sep-20 00:32 33.772076 -118.041287 316 6003ft 142kts
22-Sep-20 00:33 33.787358 -118.083283 279 5914ft 141kts
22-Sep-20 00:34 33.800238 -118.127092 290 5983ft 137kts
22-Sep-20 00:35 33.810642 -118.171272 273 5988ft 136kts
22-Sep-20 00:36 33.819127 -118.216470 283 6004ft 139kts
22-Sep-20 00:37 33.831795 -118.260507 286 6011ft 140kts
22-Sep-20 00:38 33.846196 -118.304160 288 6036ft 140kts
22-Sep-20 00:39 33.856784 -118.348974 287 6058ft 140kts
22-Sep-20 00:40 33.886767 -118.380738 317 6009ft 144kts
22-Sep-20 00:41 33.915155 -118.414449 315 6052ft 143kts
22-Sep-20 00:42 33.939786 -118.450550 286 6060ft 139kts
22-Sep-20 00:43 33.955315 -118.494090 292 6064ft 142kts
22-Sep-20 00:44 33.970193 -118.537929 286 6074ft 141kts
22-Sep-20 00:45 33.984360 -118.582005 296 6063ft 144kts
22-Sep-20 00:46 33.999355 -118.626193 285 6034ft 145kts
22-Sep-20 00:47 34.012581 -118.670970 287 6058ft 142kts
22-Sep-20 00:48 34.026406 -118.715574 287 6054ft 142kts
22-Sep-20 00:49 34.039609 -118.760304 293 6062ft 142kts
22-Sep-20 00:50 34.051069 -118.805964 288 6040ft 141kts
22-Sep-20 00:51 34.062104 -118.851571 282 6045ft 141kts
22-Sep-20 00:52 34.072803 -118.897220 293 6034ft 142kts
22-Sep-20 00:53 34.085518 -118.942674 285 6042ft 142kts
22-Sep-20 00:54 34.097721 -118.988164 288 6044ft 142kts
22-Sep-20 00:55 34.111689 -119.032831 289 6051ft 142kts
22-Sep-20 00:56 34.127626 -119.076486 296 6054ft 141kts
22-Sep-20 00:57 34.143652 -119.120029 300 6046ft 141kts
22-Sep-20 00:58 34.163538 -119.161188 293 6016ft 143kts
22-Sep-20 00:59 34.180669 -119.203999 301 6043ft 141kts
22-Sep-20 01:00 34.200104 -119.245486 299 6039ft 141kts
22-Sep-20 01:01 34.216842 -119.288818 292 6039ft 142kts
22-Sep-20 01:02 34.234137 -119.331618 300 6023ft 143kts
22-Sep-20 01:03 34.251340 -119.374575 295 6031ft 142kts
22-Sep-20 01:04 34.268146 -119.418442 298 5371ft 140kts
22-Sep-20 01:05 34.285265 -119.459888 296 4669ft 133kts
22-Sep-20 01:06 34.301962 -119.498617 301 4147ft 127kts
22-Sep-20 01:07 34.318607 -119.537037 297 3939ft 129kts
22-Sep-20 01:08 34.334062 -119.576526 298 3739ft 130kts
22-Sep-20 01:09 34.349449 -119.617248 294 3410ft 134kts
22-Sep-20 01:10 34.366064 -119.657906 295 3000ft 135kts
22-Sep-20 01:11 34.380912 -119.697686 290 2545ft 123kts
22-Sep-20 01:12 34.395869 -119.734948 303 1627ft 114kts
22-Sep-20 01:13 34.407896 -119.766334 290 1189ft 97kts
22-Sep-20 01:14 34.417501 -119.796636 295 712ft 97kts
22-Sep-20 01:15 34.428012 -119.826143 281 199ft 95kts
22-Sep-20 01:16 34.427341 -119.846181 210 13ft 12kts
22-Sep-20 01:17 34.426572 -119.843131 88 13ft 29kts
22-Sep-20 01:18 34.423472 -119.839827 127 13ft 6kts
22-Sep-20 01:19 34.423578 -119.835838 345 13ft 0kts
22-Sep-20 01:20 34.423578 -119.835838 345 13ft 0kts
22-Sep-20 01:21 34.423578 -119.835838 345 13ft 0kts
22-Sep-20 01:22 34.423578 -119.835838 345 13ft 0kts

Navigation Log

Ident Type
Flight plan parsing failed, navigation log unavailable